createdAt,value
2023-01-25T00:01:21.978Z,88.53
2023-01-25T00:03:50.506Z,91.75
2023-01-25T00:06:18.982Z,81.03
2023-01-25T00:08:50.895Z,76.18
2023-01-25T00:11:20.363Z,85.90
2023-01-25T00:13:48.936Z,85.72
2023-01-25T00:16:17.534Z,88.15
2023-01-25T00:18:46.068Z,86.55
2023-01-25T00:21:19.877Z,87.72
2023-01-25T00:23:48.749Z,83.40
2023-01-25T00:26:17.854Z,76.38
2023-01-25T00:28:50.948Z,79.22
2023-01-25T00:31:38.028Z,84.10
2023-01-25T00:34:24.911Z,96.47
2023-01-25T00:37:12.414Z,95.80
2023-01-25T00:39:41.305Z,100.75
2023-01-25T00:42:14.436Z,98.60
2023-01-25T00:44:43.778Z,88.68
2023-01-25T00:47:12.728Z,94.18
2023-01-25T00:49:43.111Z,97.15
2023-01-25T00:52:12.229Z,97.38
2023-01-25T00:54:40.921Z,93.85
2023-01-25T00:57:09.571Z,102.47
2023-01-25T00:59:38.083Z,102.03
2023-01-25T01:02:06.459Z,97.15
2023-01-25T01:04:34.975Z,90.43
2023-01-25T01:07:03.519Z,91.95
2023-01-25T01:09:32.425Z,82.30
2023-01-25T01:12:00.938Z,85.90
2023-01-25T01:14:29.390Z,93.25
2023-01-25T01:16:58.136Z,89.53
2023-01-25T01:19:26.643Z,89.35
2023-01-25T01:21:55.104Z,84.30
2023-01-25T01:24:23.561Z,91.90
2023-01-25T01:26:52.039Z,93.22
2023-01-25T01:29:20.460Z,94.45
2023-01-25T01:31:52.680Z,89.40
2023-01-25T01:36:49.583Z,101.32
2023-01-25T01:39:18.445Z,93.95
2023-01-25T01:41:46.873Z,115.45
2023-01-25T01:44:18.371Z,98.82
2023-01-25T01:46:54.259Z,104.45
2023-01-25T01:49:26.994Z,91.57
2023-01-25T01:52:04.437Z,87.70
2023-01-25T01:54:51.102Z,92.60
2023-01-25T01:57:21.481Z,101.53
2023-01-25T01:59:56.170Z,104.68
2023-01-25T02:02:26.792Z,101.18
2023-01-25T02:05:00.971Z,112.72
2023-01-25T02:07:35.465Z,97.10
2023-01-25T02:10:08.654Z,95.60
2023-01-25T02:12:38.286Z,104.43
2023-01-25T02:15:07.729Z,99.35
2023-01-25T02:17:38.775Z,92.15
2023-01-25T02:20:32.961Z,108.70
2023-01-25T02:23:11.209Z,109.50
2023-01-25T02:25:41.255Z,97.30
2023-01-25T02:28:18.042Z,101.18
2023-01-25T02:30:47.273Z,105.50
2023-01-25T02:33:15.758Z,110.05
2023-01-25T02:35:53.843Z,99.97
2023-01-25T02:38:22.458Z,94.47
2023-01-25T02:40:59.193Z,108.95
2023-01-25T02:43:30.784Z,100.65
2023-01-25T02:46:10.950Z,98.63
2023-01-25T02:48:39.499Z,93.60
2023-01-25T02:51:09.608Z,90.80
2023-01-25T02:53:38.086Z,106.80
2023-01-25T02:56:06.800Z,104.15
2023-01-25T02:58:35.224Z,96.65
2023-01-25T03:01:03.952Z,107.07
2023-01-25T03:03:32.331Z,98.97
2023-01-25T03:06:00.740Z,113.15
2023-01-25T03:08:29.183Z,106.22
2023-01-25T03:10:59.248Z,97.05
2023-01-25T03:13:28.589Z,102.45
2023-01-25T03:16:02.516Z,111.32
2023-01-25T03:18:30.943Z,89.78
2023-01-25T03:21:25.988Z,112.32
2023-01-25T03:23:56.915Z,102.65
2023-01-25T03:26:28.270Z,95.88
2023-01-25T03:28:56.703Z,93.20
2023-01-25T03:31:25.232Z,97.82
2023-01-25T03:33:53.726Z,96.57
2023-01-25T03:36:22.183Z,104.22
2023-01-25T03:38:50.579Z,98.25
2023-01-25T03:41:18.991Z,90.30
2023-01-25T03:43:47.399Z,95.45
2023-01-25T03:46:15.824Z,99.75
2023-01-25T03:48:44.393Z,98.32
2023-01-25T03:51:12.805Z,89.47
2023-01-25T03:53:41.213Z,106.25
2023-01-25T03:56:11.953Z,83.57
2023-01-25T03:58:40.442Z,96.32
2023-01-25T04:01:08.982Z,88.18
2023-01-25T04:03:37.726Z,99.18
2023-01-25T04:06:06.981Z,102.95
2023-01-25T04:08:35.908Z,97.90
2023-01-25T04:11:07.303Z,86.38
2023-01-25T04:13:37.201Z,74.82
2023-01-25T04:16:07.348Z,84.65
2023-01-25T04:18:35.805Z,92.45
2023-01-25T04:21:04.380Z,93.32
2023-01-25T04:23:33.210Z,80.00
2023-01-25T04:26:05.798Z,96.75
2023-01-25T04:28:35.065Z,82.93
2023-01-25T04:31:06.074Z,87.35
2023-01-25T04:33:35.171Z,80.78
2023-01-25T04:36:04.012Z,90.57
2023-01-25T04:38:32.481Z,94.50
2023-01-25T04:41:00.938Z,85.47
2023-01-25T04:43:29.422Z,87.25
2023-01-25T04:45:57.850Z,87.15
2023-01-25T04:48:26.356Z,86.90
2023-01-25T04:50:54.900Z,89.68
2023-01-25T04:53:23.673Z,91.28
2023-01-25T04:55:52.146Z,80.78
2023-01-25T04:58:20.641Z,93.72
2023-01-25T05:00:49.925Z,81.90
2023-01-25T05:03:18.327Z,90.47
2023-01-25T05:05:47.906Z,87.72
2023-01-25T05:08:16.484Z,79.78
2023-01-25T05:10:45.324Z,76.60
2023-01-25T05:13:13.771Z,83.82
2023-01-25T05:15:42.296Z,85.43
2023-01-25T05:18:10.708Z,81.22
2023-01-25T05:20:39.233Z,73.93
2023-01-25T05:23:07.630Z,73.70
2023-01-25T05:25:54.573Z,75.38
2023-01-25T05:28:23.063Z,80.47
2023-01-25T05:30:51.571Z,78.32
2023-01-25T05:33:20.202Z,74.18
2023-01-25T05:35:48.806Z,84.28
2023-01-25T05:38:17.258Z,75.43
2023-01-25T05:40:45.718Z,80.38
2023-01-25T05:43:14.113Z,78.13
2023-01-25T05:45:42.615Z,78.47
2023-01-25T05:48:10.997Z,73.75
2023-01-25T05:50:39.464Z,75.03
2023-01-25T05:53:07.906Z,81.15
2023-01-25T05:55:36.890Z,87.38
2023-01-25T05:58:05.364Z,84.65
2023-01-25T06:00:33.716Z,92.85
2023-01-25T06:03:02.654Z,79.18
2023-01-25T06:05:31.098Z,82.72
2023-01-25T06:07:59.630Z,80.78
2023-01-25T06:10:28.366Z,79.15
2023-01-25T06:12:59.872Z,72.70
2023-01-25T06:15:28.377Z,82.68
2023-01-25T06:17:56.807Z,85.97
2023-01-25T06:20:25.180Z,80.47
2023-01-25T06:22:54.013Z,85.28
2023-01-25T06:25:22.384Z,82.72
2023-01-25T06:27:50.867Z,88.72
2023-01-25T06:30:19.421Z,90.13
2023-01-25T06:32:47.958Z,70.97
2023-01-25T06:35:16.517Z,92.72
2023-01-25T06:37:45.046Z,85.13
2023-01-25T06:40:13.558Z,83.22
2023-01-25T06:42:42.021Z,97.43
2023-01-25T06:45:11.104Z,93.15
2023-01-25T06:47:40.597Z,89.80
2023-01-25T06:50:10.458Z,87.93
2023-01-25T06:52:38.917Z,84.03
2023-01-25T06:55:10.227Z,94.18
2023-01-25T06:57:39.037Z,90.55
2023-01-25T07:00:08.405Z,89.55
2023-01-25T07:02:36.988Z,97.38
2023-01-25T07:05:06.112Z,89.97
2023-01-25T07:07:34.902Z,98.32
2023-01-25T07:10:03.518Z,92.03
2023-01-25T07:12:31.992Z,99.18
2023-01-25T07:15:00.444Z,89.22
2023-01-25T07:17:29.108Z,88.55
2023-01-25T07:19:57.553Z,98.07
2023-01-25T07:22:26.034Z,95.30
2023-01-25T07:24:57.748Z,90.50
2023-01-25T07:27:26.167Z,94.40
2023-01-25T07:29:54.665Z,95.68
2023-01-25T07:32:23.096Z,101.00
2023-01-25T07:34:51.636Z,91.57
2023-01-25T07:37:20.196Z,90.88
2023-01-25T07:39:50.596Z,92.07
2023-01-25T07:42:19.119Z,89.32
2023-01-25T07:44:47.806Z,93.18
2023-01-25T07:47:16.346Z,93.22
2023-01-25T07:49:44.733Z,95.00
2023-01-25T07:52:13.188Z,102.80
2023-01-25T07:54:41.570Z,93.35
2023-01-25T07:57:10.253Z,90.40
2023-01-25T07:59:38.665Z,97.07
2023-01-25T08:02:11.575Z,85.13
2023-01-25T08:04:40.047Z,97.97
2023-01-25T08:07:09.028Z,90.38
2023-01-25T08:09:37.520Z,90.38
2023-01-25T08:12:08.619Z,91.82
2023-01-25T08:14:38.382Z,98.40
2023-01-25T08:17:06.757Z,92.13
2023-01-25T08:19:35.733Z,87.03
2023-01-25T08:22:04.501Z,86.85
2023-01-25T08:24:32.987Z,86.07
2023-01-25T08:27:01.648Z,78.70
2023-01-25T08:29:30.431Z,90.43
2023-01-25T08:31:59.030Z,103.28
2023-01-25T08:34:27.468Z,92.13
2023-01-25T08:36:55.924Z,90.00
2023-01-25T08:39:24.382Z,102.50
2023-01-25T08:41:52.917Z,88.90
2023-01-25T08:44:24.002Z,88.50
2023-01-25T08:46:52.519Z,92.10
2023-01-25T08:49:21.203Z,90.60
2023-01-25T08:51:50.468Z,91.63
2023-01-25T08:54:18.846Z,80.93
2023-01-25T08:56:47.362Z,97.82
2023-01-25T08:59:15.976Z,92.65
2023-01-25T09:01:44.489Z,75.00
2023-01-25T09:04:12.916Z,85.93
2023-01-25T09:06:41.402Z,93.88
2023-01-25T09:09:12.725Z,100.43
2023-01-25T09:11:41.206Z,102.50
2023-01-25T09:14:09.597Z,98.78
2023-01-25T09:16:38.193Z,96.25
2023-01-25T09:19:06.668Z,90.75
2023-01-25T09:21:35.957Z,98.85
2023-01-25T09:24:06.738Z,96.38
2023-01-25T09:26:39.180Z,94.88
2023-01-25T09:29:08.568Z,96.72
2023-01-25T09:31:45.089Z,89.50
2023-01-25T09:34:15.329Z,94.88
2023-01-25T09:36:43.994Z,104.30
2023-01-25T09:39:12.771Z,90.28
2023-01-25T09:42:06.772Z,105.10
2023-01-25T09:44:53.678Z,95.00
2023-01-25T09:47:28.182Z,97.68
2023-01-25T09:50:19.927Z,112.80
2023-01-25T09:53:21.617Z,98.10
2023-01-25T09:55:54.373Z,116.95
2023-01-25T09:58:30.993Z,97.25
2023-01-25T10:01:14.380Z,107.50
2023-01-25T10:03:54.356Z,88.88
2023-01-25T10:06:36.495Z,96.50
2023-01-25T10:11:48.923Z,91.85
2023-01-25T10:14:19.350Z,85.05
2023-01-25T10:16:47.790Z,107.05
2023-01-25T10:19:39.929Z,98.93
2023-01-25T10:22:19.599Z,175.77
2023-01-25T10:25:00.975Z,96.28
2023-01-25T10:27:54.871Z,90.07
2023-01-25T10:30:30.526Z,91.38
2023-01-25T10:33:05.444Z,87.40
2023-01-25T10:35:43.114Z,98.22
2023-01-25T10:38:29.903Z,88.82
2023-01-25T10:41:11.562Z,93.88
2023-01-25T10:43:40.006Z,107.07
2023-01-25T10:46:22.245Z,99.05
2023-01-25T10:48:50.736Z,107.03
2023-01-25T10:51:30.729Z,96.40
2023-01-25T10:54:05.395Z,94.35
2023-01-25T10:56:37.028Z,97.43
2023-01-25T10:59:26.973Z,85.25
2023-01-25T11:01:58.112Z,85.45
2023-01-25T11:04:36.142Z,108.55
2023-01-25T11:07:06.132Z,89.15
2023-01-25T11:09:37.683Z,94.60
2023-01-25T11:12:20.028Z,93.40
2023-01-25T11:14:50.203Z,109.43
2023-01-25T11:17:25.363Z,94.85
2023-01-25T11:20:18.325Z,91.13
2023-01-25T11:22:55.020Z,109.43
2023-01-25T11:25:34.187Z,96.18
2023-01-25T11:28:23.821Z,94.25
2023-01-25T11:30:53.467Z,89.10
2023-01-25T11:33:22.393Z,99.10
2023-01-25T11:36:18.163Z,100.80
2023-01-25T11:39:27.409Z,103.15
2023-01-25T11:42:11.348Z,99.15
2023-01-25T11:44:55.029Z,98.32
2023-01-25T11:47:49.833Z,98.88
2023-01-25T11:50:33.978Z,90.38
2023-01-25T11:53:33.584Z,109.25
2023-01-25T11:56:19.775Z,99.32
2023-01-25T11:59:31.932Z,103.75
2023-01-25T12:02:19.433Z,104.82
2023-01-25T12:05:09.251Z,104.50
2023-01-25T12:07:54.280Z,108.47
2023-01-25T12:10:26.054Z,97.05
2023-01-25T12:13:05.827Z,93.88
2023-01-25T12:15:39.148Z,96.45
2023-01-25T12:18:35.589Z,107.55
2023-01-25T12:21:30.645Z,105.00
2023-01-25T12:24:18.249Z,88.57
2023-01-25T12:27:11.402Z,101.22
2023-01-25T12:29:46.937Z,97.65
2023-01-25T12:32:21.540Z,93.93
2023-01-25T12:35:32.693Z,99.40
2023-01-25T12:38:04.700Z,91.47
2023-01-25T12:40:47.524Z,86.63
2023-01-25T12:43:30.158Z,107.07
2023-01-25T12:46:01.260Z,98.40
2023-01-25T12:48:37.442Z,101.95
2023-01-25T12:51:05.972Z,99.90
2023-01-25T12:53:40.937Z,97.10
2023-01-25T12:56:15.888Z,103.55
2023-01-25T12:58:52.645Z,104.18
2023-01-25T13:01:47.897Z,97.00
2023-01-25T13:04:44.675Z,84.53
2023-01-25T13:07:24.268Z,98.60
2023-01-25T13:09:59.357Z,103.00
2023-01-25T13:12:27.862Z,92.90
2023-01-25T13:14:56.418Z,81.63
2023-01-25T13:17:33.261Z,86.70
2023-01-25T13:20:23.468Z,97.90
2023-01-25T13:22:53.441Z,82.82
2023-01-25T13:25:23.537Z,104.47
2023-01-25T13:27:52.675Z,83.78
2023-01-25T13:30:27.053Z,78.63
2023-01-25T13:32:58.587Z,87.18
2023-01-25T13:35:38.809Z,86.93
2023-01-25T13:38:19.165Z,85.30
2023-01-25T13:41:12.360Z,96.15
2023-01-25T13:43:44.016Z,97.05
2023-01-25T13:46:16.117Z,102.25
2023-01-25T13:48:47.881Z,104.22
2023-01-25T13:51:18.434Z,94.95
2023-01-25T13:53:58.058Z,93.90
2023-01-25T13:56:32.485Z,103.75
2023-01-25T13:59:01.335Z,90.97
2023-01-25T14:01:32.354Z,99.38
2023-01-25T14:04:03.716Z,101.35
2023-01-25T14:06:39.201Z,109.93
2023-01-25T14:09:22.756Z,89.53
2023-01-25T14:12:02.273Z,99.13
2023-01-25T14:14:35.527Z,101.82
2023-01-25T14:17:22.438Z,87.03
2023-01-25T14:19:54.707Z,96.63
2023-01-25T14:22:33.786Z,111.72
2023-01-25T14:25:14.454Z,92.18
2023-01-25T14:27:53.600Z,110.93
2023-01-25T14:30:40.882Z,99.00
2023-01-25T14:33:18.317Z,99.55
2023-01-25T14:35:57.389Z,98.50
2023-01-25T14:38:31.541Z,106.72
2023-01-25T14:41:16.261Z,87.28
2023-01-25T14:43:48.441Z,92.30
2023-01-25T14:48:50.006Z,98.85
2023-01-25T14:51:27.698Z,108.18
2023-01-25T14:54:02.398Z,105.15
2023-01-25T14:57:15.667Z,100.30
2023-01-25T14:59:53.620Z,107.72
2023-01-25T15:02:38.122Z,104.60
2023-01-25T15:05:17.431Z,117.32
2023-01-25T15:07:48.010Z,101.75
2023-01-25T15:10:31.769Z,123.25
2023-01-25T15:13:12.720Z,121.40
2023-01-25T15:15:57.961Z,116.13
2023-01-25T15:18:51.032Z,113.50
2023-01-25T15:21:27.500Z,127.53
2023-01-25T15:23:57.967Z,100.60
2023-01-25T15:26:31.694Z,105.75
2023-01-25T15:29:13.791Z,104.25
2023-01-25T15:31:42.908Z,100.30
2023-01-25T15:34:17.078Z,109.43
2023-01-25T15:36:46.091Z,99.15
2023-01-25T15:39:17.129Z,109.85
2023-01-25T15:41:46.578Z,108.72
2023-01-25T15:44:15.555Z,115.60
2023-01-25T15:46:48.657Z,102.70
2023-01-25T15:49:23.181Z,108.60
2023-01-25T15:51:51.586Z,115.32
2023-01-25T15:54:20.176Z,113.93
2023-01-25T15:56:54.865Z,93.10
2023-01-25T15:59:23.813Z,125.10
2023-01-25T16:01:52.396Z,107.13
2023-01-25T16:04:20.814Z,118.53
2023-01-25T16:06:51.445Z,114.07
2023-01-25T16:09:29.714Z,129.13
2023-01-25T16:11:59.811Z,117.38
2023-01-25T16:14:31.135Z,126.25
2023-01-25T16:17:05.575Z,119.20
2023-01-25T16:19:34.318Z,127.65
2023-01-25T16:22:02.869Z,117.32
2023-01-25T16:24:31.259Z,126.10
2023-01-25T16:27:00.848Z,122.60
2023-01-25T16:29:29.504Z,106.07
2023-01-25T16:31:58.225Z,106.82
2023-01-25T16:34:26.800Z,120.75
2023-01-25T16:36:57.626Z,113.68
2023-01-25T16:39:28.180Z,112.45
2023-01-25T16:41:57.700Z,114.35
2023-01-25T16:44:26.184Z,131.93
2023-01-25T16:46:55.390Z,112.30
2023-01-25T16:49:30.481Z,111.53
2023-01-25T16:51:59.794Z,120.53
2023-01-25T16:54:28.621Z,119.00
2023-01-25T16:56:57.420Z,115.07
2023-01-25T16:59:26.673Z,131.32
2023-01-25T17:01:55.121Z,112.63
2023-01-25T17:04:23.503Z,122.25
2023-01-25T17:06:53.063Z,148.13
2023-01-25T17:09:24.889Z,125.15
2023-01-25T17:11:54.529Z,119.65
2023-01-25T17:14:23.715Z,125.30
2023-01-25T17:16:53.441Z,132.48
2023-01-25T17:19:22.001Z,124.93
2023-01-25T17:21:50.602Z,127.30
2023-01-25T17:24:21.793Z,136.52
2023-01-25T17:26:51.196Z,130.13
2023-01-25T17:29:19.598Z,129.50
2023-01-25T17:31:48.646Z,140.50
2023-01-25T17:34:18.643Z,132.02
2023-01-25T17:36:47.905Z,138.00
2023-01-25T17:39:19.385Z,140.82
2023-01-25T17:41:49.364Z,130.25
2023-01-25T17:44:22.689Z,140.55
2023-01-25T17:46:51.695Z,153.38
2023-01-25T17:49:22.504Z,137.88
2023-01-25T17:51:51.160Z,145.10
2023-01-25T17:54:19.805Z,126.55
2023-01-25T17:56:48.691Z,126.63
2023-01-25T17:59:17.107Z,134.43
2023-01-25T18:01:45.824Z,122.80
2023-01-25T18:04:17.482Z,115.03
2023-01-25T18:06:46.135Z,112.88
2023-01-25T18:09:14.726Z,126.20
2023-01-25T18:11:43.269Z,119.70
2023-01-25T18:14:16.525Z,122.25
2023-01-25T18:16:44.964Z,117.00
2023-01-25T18:19:14.017Z,134.93
2023-01-25T18:21:43.298Z,122.38
2023-01-25T18:24:14.728Z,122.88
2023-01-25T18:26:43.226Z,129.50
2023-01-25T18:29:14.687Z,125.43
2023-01-25T18:31:43.311Z,104.53
2023-01-25T18:34:11.900Z,130.18
2023-01-25T18:36:40.628Z,116.85
2023-01-25T18:39:09.161Z,118.15
2023-01-25T18:41:37.597Z,120.13
2023-01-25T18:44:06.179Z,119.43
2023-01-25T18:46:34.913Z,129.30
2023-01-25T18:49:03.313Z,105.65
2023-01-25T18:51:31.736Z,107.85
2023-01-25T18:54:00.172Z,123.22
2023-01-25T18:56:28.925Z,112.35
2023-01-25T18:58:58.582Z,131.60
2023-01-25T19:01:27.101Z,142.05
2023-01-25T19:03:55.548Z,121.15
2023-01-25T19:06:24.821Z,136.43
2023-01-25T19:08:54.590Z,132.15
2023-01-25T19:11:23.896Z,124.95
2023-01-25T19:13:53.264Z,122.05
2023-01-25T19:16:26.203Z,127.38
2023-01-25T19:18:55.459Z,130.80
2023-01-25T19:21:26.173Z,124.30
2023-01-25T19:23:56.401Z,129.25
2023-01-25T19:26:25.745Z,127.28
2023-01-25T19:28:54.547Z,127.78
2023-01-25T19:31:25.589Z,141.50
2023-01-25T19:33:56.605Z,131.85
2023-01-25T19:36:25.260Z,119.72
2023-01-25T19:38:54.526Z,137.15
2023-01-25T19:41:25.316Z,126.63
2023-01-25T19:44:01.320Z,132.10
2023-01-25T19:46:32.327Z,121.65
2023-01-25T19:49:02.877Z,113.93
2023-01-25T19:51:33.435Z,132.93
2023-01-25T19:54:03.195Z,143.93
2023-01-25T19:56:43.048Z,134.15
2023-01-25T19:59:17.435Z,124.38
2023-01-25T20:01:46.865Z,140.50
2023-01-25T20:04:19.827Z,130.27
2023-01-25T20:06:49.313Z,134.70
2023-01-25T20:09:20.045Z,146.80
2023-01-25T20:11:48.652Z,134.80
2023-01-25T20:14:17.063Z,134.68
2023-01-25T20:16:46.984Z,132.27
2023-01-25T20:19:15.476Z,122.28
2023-01-25T20:21:43.988Z,135.88
2023-01-25T20:24:12.528Z,128.18
2023-01-25T20:26:42.947Z,113.85
2023-01-25T20:29:12.168Z,126.47
2023-01-25T20:31:43.563Z,139.95
2023-01-25T20:34:15.181Z,137.60
2023-01-25T20:36:44.435Z,135.35
2023-01-25T20:39:14.905Z,121.88
2023-01-25T20:41:43.565Z,118.60
2023-01-25T20:44:14.367Z,136.02
2023-01-25T20:46:43.167Z,131.63
2023-01-25T20:49:16.957Z,117.43
2023-01-25T20:51:46.411Z,136.68
2023-01-25T20:54:18.055Z,123.45
2023-01-25T20:56:48.056Z,110.93
2023-01-25T20:59:17.915Z,120.10
2023-01-25T21:01:46.727Z,123.75
2023-01-25T21:04:15.284Z,123.85
2023-01-25T21:06:43.765Z,116.00
2023-01-25T21:09:12.599Z,135.60
2023-01-25T21:11:41.481Z,131.48
2023-01-25T21:14:10.071Z,127.15
2023-01-25T21:16:41.591Z,126.97
2023-01-25T21:19:10.349Z,133.27
2023-01-25T21:21:38.756Z,113.32
2023-01-25T21:24:07.601Z,109.88
2023-01-25T21:26:38.161Z,111.47
2023-01-25T21:29:07.232Z,107.13
2023-01-25T21:31:39.525Z,106.95
2023-01-25T21:34:10.059Z,112.40
2023-01-25T21:36:38.482Z,113.53
2023-01-25T21:39:06.984Z,112.70
2023-01-25T21:41:35.507Z,112.72
2023-01-25T21:44:23.202Z,109.22
2023-01-25T21:47:19.635Z,108.05
2023-01-25T21:49:58.706Z,100.38
2023-01-25T21:52:27.103Z,104.00
2023-01-25T21:54:55.463Z,106.57
2023-01-25T21:57:23.920Z,129.32
2023-01-25T21:59:54.184Z,105.00
2023-01-25T22:02:22.998Z,114.13
2023-01-25T22:04:51.740Z,124.75
2023-01-25T22:07:20.213Z,126.65
2023-01-25T22:09:49.398Z,109.43
2023-01-25T22:12:17.840Z,112.38
2023-01-25T22:14:46.475Z,122.75
2023-01-25T22:17:14.930Z,116.80
2023-01-25T22:19:43.478Z,115.45
2023-01-25T22:22:11.905Z,142.43
2023-01-25T22:24:40.334Z,135.30
2023-01-25T22:27:08.792Z,119.15
2023-01-25T22:29:37.204Z,134.13
2023-01-25T22:32:05.778Z,132.95
2023-01-25T22:34:34.267Z,128.23
2023-01-25T22:37:02.803Z,140.43
2023-01-25T22:39:31.200Z,130.48
2023-01-25T22:42:00.592Z,134.98
2023-01-25T22:44:29.034Z,124.13
2023-01-25T22:46:57.517Z,114.90
2023-01-25T22:49:25.981Z,120.57
2023-01-25T22:51:54.393Z,120.70
2023-01-25T22:54:22.796Z,120.47
2023-01-25T22:56:51.211Z,122.72
2023-01-25T22:59:19.676Z,137.65
2023-01-25T23:01:48.244Z,127.95
2023-01-25T23:04:16.702Z,119.20
2023-01-25T23:06:45.161Z,127.80
2023-01-25T23:09:13.582Z,121.70
2023-01-25T23:11:42.018Z,118.93
2023-01-25T23:14:30.736Z,140.35
2023-01-25T23:17:25.086Z,126.25
2023-01-25T23:19:53.604Z,140.30
2023-01-25T23:22:21.984Z,123.63
2023-01-25T23:24:50.449Z,136.27
2023-01-25T23:27:18.841Z,125.32
2023-01-25T23:29:47.265Z,135.65
2023-01-25T23:32:15.729Z,118.38
2023-01-25T23:34:44.945Z,116.18
2023-01-25T23:37:15.421Z,126.47
2023-01-25T23:39:45.074Z,132.63
2023-01-25T23:42:13.510Z,129.50
2023-01-25T23:44:41.977Z,134.75
2023-01-25T23:47:10.481Z,120.75
2023-01-25T23:49:39.022Z,105.80
2023-01-25T23:52:07.495Z,122.90
2023-01-25T23:54:35.913Z,123.50
2023-01-25T23:57:04.385Z,113.78
2023-01-25T23:59:33.739Z,116.60
